NE17 weather

Walts Aerial Service Airport
St. Paul, Nebraska, United States

Public forecast

Using degrees Fahrenheit for public forecast. Weather courtesy of forecast.io.

Closest aviation weather report (METAR) to Walts Aerial Service Airport

Closest report is Central Nebraska Regional Airport, 18.1 nm (33.6 km) SSE. Retrieved 2019/10/24 00:40 UTC (0 seconds ago):

KGRI 240040Z 34020G37KT 10SM BKN020 BKN025 BKN042 07/02 A3015 RMK AO2 PK WND 34037/0027 PRESRR T00720022

Closest aviation forecast (TAF) to Walts Aerial Service Airport

Closest forecast is Central Nebraska Regional Airport, 18.1 nm (33.6 km) SSE. Retrieved 2019-10-24 00:54 UTC (0 seconds ago):

TAF KGRI 232352Z 2400/2424 35018G27KT P6SM SCT015 SCT180 FM240100 35017G26KT P6SM BKN015 FM240400 35017KT P6SM BKN015 FM240600 35015KT P6SM BKN035 FM240900 35011KT P6SM SCT090 FM242200 02011KT P6SM FEW250